createdAt,value
2022-10-18T00:02:06.627Z,101342.38
2022-10-18T00:04:37.481Z,101346.81
2022-10-18T00:07:09.689Z,101353.03
2022-10-18T00:09:39.273Z,101355.78
2022-10-18T00:12:08.960Z,101353.03
2022-10-18T00:14:38.519Z,101356.47
2022-10-18T00:17:08.080Z,101354.63
2022-10-18T00:19:37.669Z,101352.56
2022-10-18T00:22:09.827Z,101352.47
2022-10-18T00:24:39.346Z,101353.16
2022-10-18T00:27:09.364Z,101338.03
2022-10-18T00:29:38.904Z,101349.47
2022-10-18T00:32:08.732Z,101337.88
2022-10-18T00:34:38.692Z,101331.69
2022-10-18T00:37:10.823Z,101329.00
2022-10-18T00:39:40.416Z,101327.19
2022-10-18T00:42:09.991Z,101329.00
2022-10-18T00:45:24.588Z,101336.06
2022-10-18T00:47:57.605Z,101328.00
2022-10-18T00:50:28.296Z,101329.69
2022-10-18T00:53:02.584Z,101325.25
2022-10-18T00:55:34.368Z,101321.69
2022-10-18T00:58:04.646Z,101316.34
2022-10-18T01:00:38.721Z,101313.78
2022-10-18T01:03:08.617Z,101312.03
2022-10-18T01:05:49.380Z,101301.34
2022-10-18T01:08:34.006Z,101314.78
2022-10-18T01:11:12.807Z,101308.66
2022-10-18T01:13:59.872Z,101300.66
2022-10-18T01:16:42.194Z,101299.78
2022-10-18T01:19:29.680Z,101303.34
2022-10-18T01:22:03.613Z,101298.00
2022-10-18T01:24:48.891Z,101302.41
2022-10-18T01:27:43.280Z,101305.06
2022-10-18T01:30:35.407Z,101304.25
2022-10-18T01:33:08.717Z,101309.59
2022-10-18T01:35:43.923Z,101302.53
2022-10-18T01:38:17.176Z,101304.25
2022-10-18T01:40:49.251Z,101306.00
2022-10-18T01:43:20.179Z,101305.00
2022-10-18T01:45:52.728Z,101300.50
2022-10-18T01:48:23.216Z,101297.75
2022-10-18T01:50:52.786Z,101303.00
2022-10-18T01:53:27.890Z,101301.22
2022-10-18T01:56:04.442Z,101295.88
2022-10-18T01:58:41.203Z,101296.75
2022-10-18T02:01:20.000Z,101303.81
2022-10-18T02:03:51.338Z,101304.66
2022-10-18T02:06:23.759Z,101309.94
2022-10-18T02:08:56.594Z,101299.25
2022-10-18T02:11:26.312Z,101309.94
2022-10-18T02:13:57.942Z,101299.16
2022-10-18T02:16:33.666Z,101301.00
2022-10-18T02:19:04.968Z,101296.59
2022-10-18T02:21:35.279Z,101302.88
2022-10-18T02:24:05.488Z,101300.25
2022-10-18T02:26:35.289Z,101297.69
2022-10-18T02:29:04.867Z,101294.22
2022-10-18T02:31:39.924Z,101294.16
2022-10-18T02:34:13.772Z,101286.22
2022-10-18T02:36:46.355Z,101287.97
2022-10-18T02:39:18.996Z,101286.16
2022-10-18T02:41:48.568Z,101291.41
2022-10-18T02:44:18.240Z,101296.75
2022-10-18T02:46:50.902Z,101292.25
2022-10-18T02:49:20.468Z,101293.13
2022-10-18T02:51:50.052Z,101284.19
2022-10-18T02:54:19.618Z,101287.72
2022-10-18T02:56:49.171Z,101298.31
2022-10-18T02:59:19.069Z,101293.84
2022-10-18T03:01:51.266Z,101293.78
2022-10-18T03:04:21.166Z,101301.72
2022-10-18T03:06:50.741Z,101301.63
2022-10-18T03:09:20.760Z,101308.56
2022-10-18T03:11:50.349Z,101295.03
2022-10-18T03:14:19.905Z,101301.94
2022-10-18T03:16:52.082Z,101299.22
2022-10-18T03:19:21.619Z,101298.19
2022-10-18T03:21:51.180Z,101304.34
2022-10-18T03:24:20.884Z,101300.69
2022-10-18T03:26:50.438Z,101295.34
2022-10-18T03:29:20.039Z,101299.75
2022-10-18T03:31:52.187Z,101304.16
2022-10-18T03:34:21.715Z,101299.59
2022-10-18T03:36:51.268Z,101310.22
2022-10-18T03:39:20.846Z,101311.84
2022-10-18T03:41:50.650Z,101310.91
2022-10-18T03:44:20.190Z,101305.50
2022-10-18T03:46:52.366Z,101308.09
2022-10-18T03:49:22.008Z,101303.63
2022-10-18T03:51:52.067Z,101300.88
2022-10-18T03:54:21.706Z,101306.22
2022-10-18T03:56:51.765Z,101298.22
2022-10-18T03:59:22.416Z,101302.69
2022-10-18T04:01:54.653Z,101305.38
2022-10-18T04:04:24.413Z,101303.53
2022-10-18T04:06:54.143Z,101300.78
2022-10-18T04:09:23.750Z,101306.97
2022-10-18T04:11:53.427Z,101296.31
2022-10-18T04:14:23.731Z,101298.97
2022-10-18T04:16:55.874Z,101297.19
2022-10-18T04:19:25.452Z,101306.97
2022-10-18T04:21:55.024Z,101302.63
2022-10-18T04:24:24.748Z,101303.53
2022-10-18T04:26:54.373Z,101305.50
2022-10-18T04:29:24.134Z,101297.66
2022-10-18T04:31:56.288Z,101290.50
2022-10-18T04:34:26.086Z,101285.22
2022-10-18T04:36:55.667Z,101286.13
2022-10-18T04:39:25.213Z,101301.25
2022-10-18T04:41:54.786Z,101295.78
2022-10-18T04:44:24.557Z,101304.47
2022-10-18T04:46:57.157Z,101306.22
2022-10-18T04:49:26.730Z,101298.22
2022-10-18T04:51:56.325Z,101305.19
2022-10-18T04:54:28.520Z,101308.72
2022-10-18T04:56:58.442Z,101305.19
2022-10-18T04:59:28.084Z,101302.44
2022-10-18T05:02:00.754Z,101310.38
2022-10-18T05:04:30.385Z,101314.78
2022-10-18T05:06:59.985Z,101312.03
2022-10-18T05:09:29.590Z,101317.38
2022-10-18T05:11:59.230Z,101313.75
2022-10-18T05:14:28.826Z,101314.69
2022-10-18T05:17:00.960Z,101322.72
2022-10-18T05:19:30.549Z,101312.97
2022-10-18T05:22:00.165Z,101324.44
2022-10-18T05:24:29.953Z,101321.78
2022-10-18T05:26:59.754Z,101319.84
2022-10-18T05:29:29.585Z,101312.69
2022-10-18T05:32:01.794Z,101318.81
2022-10-18T05:34:32.042Z,101318.81
2022-10-18T05:37:02.524Z,101318.72
2022-10-18T05:39:32.133Z,101322.28
2022-10-18T05:42:02.458Z,101324.03
2022-10-18T05:44:32.052Z,101325.72
2022-10-18T05:47:04.249Z,101332.81
2022-10-18T05:49:33.816Z,101331.94
2022-10-18T05:52:03.409Z,101339.00
2022-10-18T05:54:32.972Z,101327.47
2022-10-18T05:57:02.609Z,101334.53
2022-10-18T05:59:32.182Z,101337.13
2022-10-18T06:02:04.338Z,101329.88
2022-10-18T06:04:34.838Z,101336.13
2022-10-18T06:07:04.425Z,101336.13
2022-10-18T06:09:33.956Z,101330.78
2022-10-18T06:12:03.582Z,101339.56
2022-10-18T06:14:33.523Z,101336.81
2022-10-18T06:17:06.113Z,101328.78
2022-10-18T06:19:35.804Z,101334.22
2022-10-18T06:22:05.387Z,101324.50
2022-10-18T06:24:34.968Z,101333.34
2022-10-18T06:27:08.952Z,101339.47
2022-10-18T06:29:38.754Z,101339.41
2022-10-18T06:32:11.476Z,101352.69
2022-10-18T06:34:41.026Z,101357.16
2022-10-18T06:37:10.691Z,101360.78
2022-10-18T06:39:41.018Z,101359.91
2022-10-18T06:42:10.928Z,101369.75
2022-10-18T06:44:41.258Z,101371.47
2022-10-18T06:47:13.395Z,101366.13
2022-10-18T06:49:42.951Z,101367.84
2022-10-18T06:52:12.530Z,101365.09
2022-10-18T06:54:44.208Z,101360.63
2022-10-18T06:57:14.826Z,101362.38
2022-10-18T06:59:44.375Z,101369.41
2022-10-18T07:02:19.064Z,101367.53
2022-10-18T07:04:48.626Z,101374.63
2022-10-18T07:07:18.182Z,101374.53
2022-10-18T07:09:47.926Z,101376.19
2022-10-18T07:12:17.859Z,101381.47
2022-10-18T07:14:48.818Z,101383.16
2022-10-18T07:17:21.003Z,101383.13
2022-10-18T07:19:50.532Z,101383.88
2022-10-18T07:22:20.080Z,101393.63
2022-10-18T07:24:49.632Z,101395.47
2022-10-18T07:27:19.176Z,101401.66
2022-10-18T07:29:49.700Z,101402.50
2022-10-18T07:32:21.897Z,101403.41
2022-10-18T07:34:51.748Z,101405.03
2022-10-18T07:37:21.839Z,101411.00
2022-10-18T07:39:53.100Z,101418.88
2022-10-18T07:42:22.821Z,101433.75
2022-10-18T07:44:52.388Z,101433.50
2022-10-18T07:47:24.547Z,101427.88
2022-10-18T07:49:54.098Z,101426.63
2022-10-18T07:52:23.658Z,101423.53
2022-10-18T07:54:53.257Z,101415.22
2022-10-18T07:57:23.435Z,101429.13
2022-10-18T07:59:56.881Z,101428.88
2022-10-18T08:02:29.053Z,101426.91
2022-10-18T08:04:58.687Z,101428.47
2022-10-18T08:07:28.316Z,101435.41
2022-10-18T08:09:57.836Z,101432.38
2022-10-18T08:12:27.470Z,101441.03
2022-10-18T08:14:57.049Z,101450.44
2022-10-18T08:17:29.258Z,101445.91
2022-10-18T08:20:11.867Z,101452.09
2022-10-18T08:22:48.471Z,101454.88
2022-10-18T08:25:18.213Z,101453.13
2022-10-18T08:27:47.827Z,101456.78
2022-10-18T08:30:17.706Z,101466.50
2022-10-18T08:32:49.831Z,101462.13
2022-10-18T08:35:19.524Z,101463.06
2022-10-18T08:37:49.111Z,101469.38
2022-10-18T08:40:18.986Z,101479.97
2022-10-18T08:43:03.127Z,101474.88
2022-10-18T08:45:47.415Z,101485.06
2022-10-18T08:48:24.656Z,101481.75
2022-10-18T08:50:54.754Z,101483.72
2022-10-18T08:53:29.299Z,101488.28
2022-10-18T08:56:05.546Z,101491.97
2022-10-18T08:58:36.089Z,101494.81
2022-10-18T09:01:11.446Z,101490.31
2022-10-18T09:03:59.134Z,101491.97
2022-10-18T09:06:33.600Z,101503.47
2022-10-18T09:09:14.432Z,101496.47
2022-10-18T09:11:52.680Z,101497.31
2022-10-18T09:14:48.109Z,101492.78
2022-10-18T09:17:22.710Z,101497.09
2022-10-18T09:20:06.639Z,101491.75
2022-10-18T09:22:46.184Z,101506.06
2022-10-18T09:25:20.779Z,101515.03
2022-10-18T09:27:55.833Z,101504.41
2022-10-18T09:30:35.173Z,101509.69
2022-10-18T09:33:15.849Z,101502.44
2022-10-18T09:35:52.349Z,101512.09
2022-10-18T09:41:19.647Z,101511.75
2022-10-18T09:43:53.622Z,101508.88
2022-10-18T09:46:23.118Z,101518.25
2022-10-18T09:48:54.590Z,101510.50
2022-10-18T09:51:29.024Z,101514.06
2022-10-18T09:54:06.699Z,101512.28
2022-10-18T09:56:41.941Z,101518.69
2022-10-18T09:59:30.304Z,101517.03
2022-10-18T10:01:59.824Z,101511.31
2022-10-18T10:04:29.675Z,101512.72
2022-10-18T10:07:04.000Z,101518.84
2022-10-18T10:09:39.164Z,101528.59
2022-10-18T10:12:08.767Z,101519.19
2022-10-18T10:14:46.710Z,101518.91
2022-10-18T10:17:27.498Z,101525.69
2022-10-18T10:20:00.349Z,101537.13
2022-10-18T10:22:40.523Z,101535.28
2022-10-18T10:25:10.673Z,101528.06
2022-10-18T10:27:43.655Z,101529.13
2022-10-18T10:30:25.863Z,101536.56
2022-10-18T10:32:56.423Z,101540.72
2022-10-18T10:35:52.582Z,101537.22
2022-10-18T10:38:30.609Z,101541.28
2022-10-18T10:41:00.571Z,101548.41
2022-10-18T10:43:37.641Z,101545.25
2022-10-18T10:46:10.704Z,101547.81
2022-10-18T10:48:48.964Z,101547.25
2022-10-18T10:51:20.251Z,101544.94
2022-10-18T10:53:59.525Z,101540.97
2022-10-18T10:56:30.815Z,101542.31
2022-10-18T10:59:09.043Z,101541.38
2022-10-18T11:01:39.165Z,101535.78
2022-10-18T11:04:27.773Z,101530.41
2022-10-18T11:07:04.133Z,101533.88
2022-10-18T11:09:51.813Z,101530.31
2022-10-18T11:12:29.962Z,101533.50
2022-10-18T11:15:10.000Z,101539.66
2022-10-18T11:17:45.238Z,101526.31
2022-10-18T11:20:21.132Z,101524.78
2022-10-18T11:23:01.222Z,101526.56
2022-10-18T11:25:54.187Z,101523.88
2022-10-18T11:28:35.033Z,101523.94
2022-10-18T11:31:15.505Z,101523.53
2022-10-18T11:34:08.600Z,101527.34
2022-10-18T11:36:50.473Z,101532.09
2022-10-18T11:39:33.195Z,101529.78
2022-10-18T11:42:11.072Z,101520.06
2022-10-18T11:44:45.219Z,101513.81
2022-10-18T11:47:19.676Z,101512.47
2022-10-18T11:49:57.930Z,101515.69
2022-10-18T11:52:34.132Z,101522.06
2022-10-18T11:55:33.924Z,101528.16
2022-10-18T11:58:14.543Z,101525.38
2022-10-18T12:00:49.816Z,101522.56
2022-10-18T12:03:36.521Z,101524.28
2022-10-18T12:06:09.150Z,101520.63
2022-10-18T12:08:41.922Z,101518.66
2022-10-18T12:11:16.325Z,101519.91
2022-10-18T12:13:50.954Z,101519.25
2022-10-18T12:16:38.839Z,101517.50
2022-10-18T12:19:22.121Z,101515.19
2022-10-18T12:21:55.631Z,101514.09
2022-10-18T12:24:28.283Z,101522.75
2022-10-18T12:27:01.473Z,101519.53
2022-10-18T12:29:40.011Z,101508.34
2022-10-18T12:32:12.662Z,101505.66
2022-10-18T12:34:45.592Z,101502.81
2022-10-18T12:37:45.633Z,101504.50
2022-10-18T12:40:21.316Z,101503.94
2022-10-18T12:42:52.606Z,101507.38
2022-10-18T12:45:33.442Z,101499.63
2022-10-18T12:48:04.051Z,101497.13
2022-10-18T12:50:37.539Z,101486.47
2022-10-18T12:53:22.971Z,101491.59
2022-10-18T12:55:54.126Z,101482.66
2022-10-18T12:58:34.474Z,101480.50
2022-10-18T13:01:09.446Z,101490.53
2022-10-18T13:03:55.766Z,101490.53
2022-10-18T13:06:26.362Z,101501.91
2022-10-18T13:09:21.405Z,101502.22
2022-10-18T13:11:51.041Z,101505.75
2022-10-18T13:14:59.154Z,101511.75
2022-10-18T13:17:44.101Z,101515.50
2022-10-18T13:20:27.208Z,101518.34
2022-10-18T13:23:04.978Z,101514.59
2022-10-18T13:25:39.533Z,101507.44
2022-10-18T13:28:21.725Z,101510.63
2022-10-18T13:30:56.773Z,101510.91
2022-10-18T13:33:34.738Z,101503.06
2022-10-18T13:36:06.431Z,101504.25
2022-10-18T13:38:40.965Z,101513.25
2022-10-18T13:41:12.285Z,101515.53
2022-10-18T13:44:12.617Z,101511.03
2022-10-18T13:47:21.337Z,101503.88
2022-10-18T13:50:06.175Z,101508.88
2022-10-18T13:52:50.875Z,101500.75
2022-10-18T13:55:40.948Z,101503.03
2022-10-18T13:58:14.634Z,101504.38
2022-10-18T14:00:55.335Z,101509.09
2022-10-18T14:03:58.374Z,101507.53
2022-10-18T14:06:35.808Z,101509.44
2022-10-18T14:09:19.558Z,101510.44
2022-10-18T14:11:57.809Z,101509.75
2022-10-18T14:14:34.366Z,101511.81
2022-10-18T14:17:18.840Z,101516.59
2022-10-18T14:19:51.989Z,101518.88
2022-10-18T14:22:25.814Z,101523.94
2022-10-18T14:24:55.746Z,101516.91
2022-10-18T14:27:27.690Z,101530.63
2022-10-18T14:30:11.718Z,101520.94
2022-10-18T14:32:45.903Z,101522.00
2022-10-18T14:35:32.083Z,101520.34
2022-10-18T14:38:05.360Z,101527.50
2022-10-18T14:40:38.156Z,101517.63
2022-10-18T14:43:11.990Z,101513.97
2022-10-18T14:45:41.777Z,101527.22
2022-10-18T14:48:17.650Z,101521.50
2022-10-18T14:50:49.893Z,101520.09
2022-10-18T14:53:25.197Z,101524.00
2022-10-18T14:56:00.734Z,101525.91
2022-10-18T14:58:30.414Z,101516.31
2022-10-18T15:01:00.351Z,101527.22
2022-10-18T15:03:30.526Z,101528.50
2022-10-18T15:06:02.084Z,101541.31
2022-10-18T15:08:43.910Z,101535.50
2022-10-18T15:11:14.887Z,101540.38
2022-10-18T15:13:49.669Z,101537.28
2022-10-18T15:16:20.590Z,101535.97
2022-10-18T15:19:04.054Z,101530.03
2022-10-18T15:21:33.962Z,101535.75
2022-10-18T15:24:24.787Z,101532.50
2022-10-18T15:26:54.497Z,101531.94
2022-10-18T15:29:24.964Z,101535.72
2022-10-18T15:31:55.089Z,101536.78
2022-10-18T15:34:26.049Z,101536.94
2022-10-18T15:36:58.823Z,101531.75
2022-10-18T15:39:32.992Z,101538.97
2022-10-18T15:42:04.016Z,101531.06
2022-10-18T15:44:36.434Z,101531.22
2022-10-18T15:47:21.696Z,101535.84
2022-10-18T15:49:56.974Z,101536.91
2022-10-18T15:52:39.341Z,101538.00
2022-10-18T15:55:39.138Z,101530.22
2022-10-18T15:58:15.547Z,101537.72
2022-10-18T16:00:45.565Z,101535.47
2022-10-18T16:03:15.212Z,101539.38
2022-10-18T16:05:44.988Z,101535.38
2022-10-18T16:08:22.751Z,101534.03
2022-10-18T16:10:52.385Z,101541.66
2022-10-18T16:13:24.524Z,101543.94
2022-10-18T16:15:55.700Z,101541.75
2022-10-18T16:18:26.084Z,101544.09
2022-10-18T16:20:56.030Z,101541.91
2022-10-18T16:23:28.585Z,101544.13
2022-10-18T16:25:58.380Z,101551.72
2022-10-18T16:28:31.891Z,101548.63
2022-10-18T16:31:03.849Z,101557.06
2022-10-18T16:33:33.633Z,101550.47
2022-10-18T16:36:04.609Z,101558.94
2022-10-18T16:38:36.171Z,101540.78
2022-10-18T16:41:06.454Z,101546.47
2022-10-18T16:43:39.625Z,101551.34
2022-10-18T16:46:10.020Z,101559.84
2022-10-18T16:48:39.573Z,101559.31
2022-10-18T16:51:09.444Z,101559.75
2022-10-18T16:53:39.099Z,101565.38
2022-10-18T16:56:13.629Z,101567.47
2022-10-18T16:58:46.122Z,101571.38
2022-10-18T17:01:16.727Z,101575.19
2022-10-18T17:03:47.241Z,101571.91
2022-10-18T17:06:18.447Z,101582.78
2022-10-18T17:08:50.053Z,101583.03
2022-10-18T17:11:20.487Z,101586.00
2022-10-18T17:13:52.632Z,101585.44
2022-10-18T17:19:16.626Z,101603.72
2022-10-18T17:21:46.169Z,101597.78
2022-10-18T17:24:16.213Z,101605.19
2022-10-18T17:26:46.413Z,101608.06
2022-10-18T17:29:21.235Z,101603.91
2022-10-18T17:31:50.814Z,101604.13
2022-10-18T17:34:21.597Z,101598.13
2022-10-18T17:36:51.258Z,101591.28
2022-10-18T17:39:20.881Z,101599.44
2022-10-18T17:41:50.650Z,101605.78
2022-10-18T17:44:22.812Z,101605.97
2022-10-18T17:46:52.866Z,101611.44
2022-10-18T17:49:22.458Z,101617.78
2022-10-18T17:51:52.176Z,101617.09
2022-10-18T17:54:21.777Z,101610.13
2022-10-18T17:56:53.888Z,101615.50
2022-10-18T17:59:26.794Z,101624.47
2022-10-18T18:01:56.398Z,101616.63
2022-10-18T18:04:26.057Z,101622.94
2022-10-18T18:06:57.255Z,101619.56
2022-10-18T18:09:27.389Z,101625.06
2022-10-18T18:11:56.984Z,101628.75
2022-10-18T18:14:29.367Z,101624.47
2022-10-18T18:16:59.470Z,101623.75
2022-10-18T18:19:29.129Z,101622.06
2022-10-18T18:21:59.435Z,101623.06
2022-10-18T18:24:30.001Z,101630.19
2022-10-18T18:26:59.864Z,101634.72
2022-10-18T18:29:32.473Z,101631.31
2022-10-18T18:32:03.379Z,101627.84
2022-10-18T18:34:32.981Z,101631.44
2022-10-18T18:37:02.577Z,101627.13
2022-10-18T18:39:35.684Z,101624.56
2022-10-18T18:42:06.340Z,101632.59
2022-10-18T18:44:38.575Z,101630.91
2022-10-18T18:47:12.983Z,101631.00
2022-10-18T18:49:43.020Z,101626.66
2022-10-18T18:52:12.759Z,101630.28
2022-10-18T18:54:42.357Z,101625.06
2022-10-18T18:57:11.949Z,101623.34
2022-10-18T18:59:44.126Z,101633.91
2022-10-18T19:02:13.714Z,101630.28
2022-10-18T19:04:43.953Z,101631.16
2022-10-18T19:07:13.572Z,101633.88
2022-10-18T19:09:44.711Z,101621.59
2022-10-18T19:12:16.485Z,101622.63
2022-10-18T19:14:51.202Z,101626.13
2022-10-18T19:17:21.957Z,101625.25
2022-10-18T19:19:52.545Z,101622.69
2022-10-18T19:22:22.102Z,101622.78
2022-10-18T19:24:51.648Z,101625.47
2022-10-18T19:27:21.193Z,101623.72
2022-10-18T19:29:53.326Z,101620.19
2022-10-18T19:32:22.944Z,101625.47
2022-10-18T19:34:52.813Z,101620.13
2022-10-18T19:37:22.394Z,101617.41
2022-10-18T19:39:51.917Z,101618.22
2022-10-18T19:42:26.146Z,101618.22
2022-10-18T19:44:59.612Z,101612.00
2022-10-18T19:47:29.220Z,101611.13
2022-10-18T19:49:59.210Z,101613.78
2022-10-18T19:52:28.925Z,101622.53
2022-10-18T19:54:58.616Z,101621.69
2022-10-18T19:57:28.860Z,101619.16
2022-10-18T20:00:01.543Z,101625.41
2022-10-18T20:02:41.196Z,101614.94
2022-10-18T20:05:11.501Z,101621.25
2022-10-18T20:07:41.354Z,101627.53
2022-10-18T20:10:11.445Z,101632.13
2022-10-18T20:12:41.112Z,101632.19
2022-10-18T20:15:14.557Z,101639.38
2022-10-18T20:17:44.268Z,101630.72
2022-10-18T20:20:14.664Z,101627.31
2022-10-18T20:22:44.365Z,101625.63
2022-10-18T20:25:13.942Z,101625.63
2022-10-18T20:27:43.495Z,101630.88
2022-10-18T20:30:15.833Z,101626.47
2022-10-18T20:32:45.382Z,101634.41
2022-10-18T20:35:14.889Z,101634.41
2022-10-18T20:37:44.430Z,101642.28
2022-10-18T20:40:14.926Z,101643.16
2022-10-18T20:42:44.606Z,101643.00
2022-10-18T20:45:16.703Z,101643.78
2022-10-18T20:47:46.437Z,101641.91
2022-10-18T20:50:15.978Z,101640.06
2022-10-18T20:52:51.118Z,101639.97
2022-10-18T20:55:20.732Z,101642.50
2022-10-18T20:57:50.801Z,101635.34
2022-10-18T21:00:22.995Z,101634.28
2022-10-18T21:02:52.587Z,101629.63
2022-10-18T21:05:22.109Z,101636.53
2022-10-18T21:07:51.681Z,101638.13
2022-10-18T21:10:21.316Z,101635.31
2022-10-18T21:12:51.064Z,101628.97
2022-10-18T21:15:24.280Z,101627.13
2022-10-18T21:17:54.180Z,101636.69
2022-10-18T21:20:23.725Z,101630.50
2022-10-18T21:22:54.075Z,101624.25
2022-10-18T21:25:23.605Z,101622.47
2022-10-18T21:27:53.170Z,101629.47
2022-10-18T21:30:25.421Z,101628.56
2022-10-18T21:32:55.274Z,101621.53
2022-10-18T21:35:24.816Z,101617.16
2022-10-18T21:37:54.421Z,101613.66
2022-10-18T21:40:23.961Z,101623.41
2022-10-18T21:42:53.516Z,101616.34
2022-10-18T21:45:25.634Z,101603.09
2022-10-18T21:47:55.233Z,101605.88
2022-10-18T21:50:24.797Z,101603.38
2022-10-18T21:52:54.360Z,101607.06
2022-10-18T21:55:23.881Z,101606.31
2022-10-18T21:57:53.456Z,101607.31
2022-10-18T22:00:25.603Z,101610.94
2022-10-18T22:03:09.101Z,101609.38
2022-10-18T22:05:38.712Z,101609.53
2022-10-18T22:08:09.505Z,101608.78
2022-10-18T22:10:39.149Z,101618.63
2022-10-18T22:13:08.702Z,101610.84
2022-10-18T22:15:40.861Z,101605.69
2022-10-18T22:18:10.406Z,101605.84
2022-10-18T22:20:39.957Z,101611.34
2022-10-18T22:23:11.143Z,101611.50
2022-10-18T22:25:40.684Z,101608.19
2022-10-18T22:28:10.241Z,101604.78
2022-10-18T22:30:42.407Z,101606.63
2022-10-18T22:33:11.955Z,101602.31
2022-10-18T22:35:41.989Z,101607.69
2022-10-18T22:38:11.525Z,101611.28
2022-10-18T22:40:41.024Z,101607.81
2022-10-18T22:43:10.580Z,101606.09
2022-10-18T22:45:43.992Z,101605.22
2022-10-18T22:48:13.542Z,101596.44
2022-10-18T22:50:43.085Z,101593.91
2022-10-18T22:53:12.638Z,101600.13
2022-10-18T22:55:42.169Z,101611.66
2022-10-18T22:58:11.736Z,101613.50
2022-10-18T23:00:43.886Z,101612.66
2022-10-18T23:03:13.453Z,101612.69
2022-10-18T23:05:43.883Z,101608.41
2022-10-18T23:08:14.978Z,101609.34
2022-10-18T23:10:45.485Z,101612.94
2022-10-18T23:13:15.541Z,101612.16
2022-10-18T23:15:47.701Z,101610.44
2022-10-18T23:18:17.718Z,101606.94
2022-10-18T23:20:47.486Z,101604.34
2022-10-18T23:23:17.025Z,101602.59
2022-10-18T23:25:48.654Z,101604.41
2022-10-18T23:28:20.555Z,101601.81
2022-10-18T23:30:52.729Z,101601.88
2022-10-18T23:33:22.273Z,101596.66
2022-10-18T23:35:51.829Z,101604.63
2022-10-18T23:38:21.382Z,101602.91
2022-10-18T23:40:50.926Z,101599.41
2022-10-18T23:43:20.470Z,101594.13
2022-10-18T23:45:53.081Z,101597.59
2022-10-18T23:48:22.644Z,101601.09
2022-10-18T23:50:52.254Z,101600.16
2022-10-18T23:53:22.333Z,101603.59
2022-10-18T23:55:55.296Z,101605.31
2022-10-18T23:58:25.209Z,101606.16
